sensor_id;sensor_type;location;lat;lon;timestamp;temperature;humidity
23499;DHT22;11926;48.120;11.562;2023-10-19T00:02:38;9.70;99.30
23499;DHT22;11926;48.120;11.562;2023-10-19T00:05:29;9.70;99.30
23499;DHT22;11926;48.120;11.562;2023-10-19T00:08:20;9.70;99.30
23499;DHT22;11926;48.120;11.562;2023-10-19T00:11:11;9.70;99.30
23499;DHT22;11926;48.120;11.562;2023-10-19T00:14:08;9.70;99.30
23499;DHT22;11926;48.120;11.562;2023-10-19T00:17:03;9.60;99.30
23499;DHT22;11926;48.120;11.562;2023-10-19T00:19:57;9.60;99.40
23499;DHT22;11926;48.120;11.562;2023-10-19T00:22:55;9.60;99.60
23499;DHT22;11926;48.120;11.562;2023-10-19T00:25:44;9.60;99.60
23499;DHT22;11926;48.120;11.562;2023-10-19T00:28:38;9.60;99.70
23499;DHT22;11926;48.120;11.562;2023-10-19T00:31:28;9.60;99.80
23499;DHT22;11926;48.120;11.562;2023-10-19T00:34:24;9.60;99.70
23499;DHT22;11926;48.120;11.562;2023-10-19T00:37:13;9.60;99.80
23499;DHT22;11926;48.120;11.562;2023-10-19T00:40:11;9.60;99.90
23499;DHT22;11926;48.120;11.562;2023-10-19T00:43:13;9.60;99.90
23499;DHT22;11926;48.120;11.562;2023-10-19T00:46:04;9.70;99.90
23499;DHT22;11926;48.120;11.562;2023-10-19T00:48:57;9.70;99.90
23499;DHT22;11926;48.120;11.562;2023-10-19T00:51:51;9.80;99.90
23499;DHT22;11926;48.120;11.562;2023-10-19T00:54:50;9.80;99.90
23499;DHT22;11926;48.120;11.562;2023-10-19T00:57:48;9.80;99.90
23499;DHT22;11926;48.120;11.562;2023-10-19T01:00:39;9.90;99.90
23499;DHT22;11926;48.120;11.562;2023-10-19T01:03:31;9.90;99.90
23499;DHT22;11926;48.120;11.562;2023-10-19T01:06:26;9.90;99.90
23499;DHT22;11926;48.120;11.562;2023-10-19T01:09:18;10.00;99.90
23499;DHT22;11926;48.120;11.562;2023-10-19T01:12:08;9.90;99.90
23499;DHT22;11926;48.120;11.562;2023-10-19T01:15:15;9.90;99.90
23499;DHT22;11926;48.120;11.562;2023-10-19T01:18:04;10.00;99.90
23499;DHT22;11926;48.120;11.562;2023-10-19T01:20:57;9.90;99.90
23499;DHT22;11926;48.120;11.562;2023-10-19T01:23:50;9.90;99.90
23499;DHT22;11926;48.120;11.562;2023-10-19T01:26:39;9.90;99.90
23499;DHT22;11926;48.120;11.562;2023-10-19T01:29:29;9.90;99.90
23499;DHT22;11926;48.120;11.562;2023-10-19T01:32:18;9.90;99.90
23499;DHT22;11926;48.120;11.562;2023-10-19T01:35:06;9.90;99.90
23499;DHT22;11926;48.120;11.562;2023-10-19T01:37:55;9.90;99.90
23499;DHT22;11926;48.120;11.562;2023-10-19T01:40:44;9.90;99.90
23499;DHT22;11926;48.120;11.562;2023-10-19T01:43:35;9.80;99.90
23499;DHT22;11926;48.120;11.562;2023-10-19T01:46:29;9.80;99.90
23499;DHT22;11926;48.120;11.562;2023-10-19T01:49:20;9.80;99.90
23499;DHT22;11926;48.120;11.562;2023-10-19T01:52:12;9.80;99.90
23499;DHT22;11926;48.120;11.562;2023-10-19T01:55:01;9.70;99.90
23499;DHT22;11926;48.120;11.562;2023-10-19T01:57:56;9.70;99.90
23499;DHT22;11926;48.120;11.562;2023-10-19T02:00:44;9.60;99.90
23499;DHT22;11926;48.120;11.562;2023-10-19T02:03:32;9.70;99.90
23499;DHT22;11926;48.120;11.562;2023-10-19T02:06:22;9.60;99.90
23499;DHT22;11926;48.120;11.562;2023-10-19T02:09:13;9.70;99.90
23499;DHT22;11926;48.120;11.562;2023-10-19T02:12:08;9.70;99.90
23499;DHT22;11926;48.120;11.562;2023-10-19T02:14:57;9.70;99.90
23499;DHT22;11926;48.120;11.562;2023-10-19T02:17:45;9.70;99.90
23499;DHT22;11926;48.120;11.562;2023-10-19T02:20:34;9.80;99.90
23499;DHT22;11926;48.120;11.562;2023-10-19T02:23:27;9.80;99.90
23499;DHT22;11926;48.120;11.562;2023-10-19T02:26:15;9.90;99.90
23499;DHT22;11926;48.120;11.562;2023-10-19T02:29:03;9.90;99.90
23499;DHT22;11926;48.120;11.562;2023-10-19T02:31:55;9.90;99.90
23499;DHT22;11926;48.120;11.562;2023-10-19T02:34:48;10.00;99.90
23499;DHT22;11926;48.120;11.562;2023-10-19T02:37:36;10.00;99.90
23499;DHT22;11926;48.120;11.562;2023-10-19T02:40:25;10.00;99.90
23499;DHT22;11926;48.120;11.562;2023-10-19T02:43:18;10.10;99.90
23499;DHT22;11926;48.120;11.562;2023-10-19T02:46:07;10.10;99.90
23499;DHT22;11926;48.120;11.562;2023-10-19T02:49:00;10.10;99.90
23499;DHT22;11926;48.120;11.562;2023-10-19T02:51:51;10.10;99.90
23499;DHT22;11926;48.120;11.562;2023-10-19T02:54:40;10.20;99.90
23499;DHT22;11926;48.120;11.562;2023-10-19T02:57:29;10.20;99.90
23499;DHT22;11926;48.120;11.562;2023-10-19T03:00:17;10.20;99.90
23499;DHT22;11926;48.120;11.562;2023-10-19T03:03:09;10.20;99.90
23499;DHT22;11926;48.120;11.562;2023-10-19T03:05:59;10.20;99.90
23499;DHT22;11926;48.120;11.562;2023-10-19T03:08:47;10.20;99.90
23499;DHT22;11926;48.120;11.562;2023-10-19T03:11:43;10.20;99.90
23499;DHT22;11926;48.120;11.562;2023-10-19T03:14:32;10.20;99.90
23499;DHT22;11926;48.120;11.562;2023-10-19T03:17:21;10.20;99.90
23499;DHT22;11926;48.120;11.562;2023-10-19T03:20:11;10.10;99.90
23499;DHT22;11926;48.120;11.562;2023-10-19T03:23:00;10.10;99.90
23499;DHT22;11926;48.120;11.562;2023-10-19T03:25:54;10.10;99.90
23499;DHT22;11926;48.120;11.562;2023-10-19T03:29:00;10.10;99.90
23499;DHT22;11926;48.120;11.562;2023-10-19T03:31:54;10.10;99.90
23499;DHT22;11926;48.120;11.562;2023-10-19T03:34:42;10.10;99.90
23499;DHT22;11926;48.120;11.562;2023-10-19T03:37:35;10.10;99.90
23499;DHT22;11926;48.120;11.562;2023-10-19T03:40:24;10.20;99.90
23499;DHT22;11926;48.120;11.562;2023-10-19T03:43:14;10.20;99.90
23499;DHT22;11926;48.120;11.562;2023-10-19T03:46:08;10.20;99.90
23499;DHT22;11926;48.120;11.562;2023-10-19T03:49:09;10.20;99.90
23499;DHT22;11926;48.120;11.562;2023-10-19T03:52:00;10.20;99.90
23499;DHT22;11926;48.120;11.562;2023-10-19T03:55:08;10.20;99.90
23499;DHT22;11926;48.120;11.562;2023-10-19T03:58:04;10.10;99.90
23499;DHT22;11926;48.120;11.562;2023-10-19T04:00:55;10.10;99.90
23499;DHT22;11926;48.120;11.562;2023-10-19T04:03:48;10.10;99.90
23499;DHT22;11926;48.120;11.562;2023-10-19T04:06:40;10.10;99.90
23499;DHT22;11926;48.120;11.562;2023-10-19T04:09:33;10.10;99.90
23499;DHT22;11926;48.120;11.562;2023-10-19T04:12:36;10.10;99.90
23499;DHT22;11926;48.120;11.562;2023-10-19T04:15:27;10.20;99.90
23499;DHT22;11926;48.120;11.562;2023-10-19T04:18:20;10.20;99.90
23499;DHT22;11926;48.120;11.562;2023-10-19T04:21:12;10.20;99.90
23499;DHT22;11926;48.120;11.562;2023-10-19T04:24:00;10.20;99.90
23499;DHT22;11926;48.120;11.562;2023-10-19T04:26:48;10.30;99.90
23499;DHT22;11926;48.120;11.562;2023-10-19T04:29:37;10.30;99.90
23499;DHT22;11926;48.120;11.562;2023-10-19T04:32:29;10.30;99.90
23499;DHT22;11926;48.120;11.562;2023-10-19T04:35:18;10.30;99.90
23499;DHT22;11926;48.120;11.562;2023-10-19T04:38:09;10.30;99.90
23499;DHT22;11926;48.120;11.562;2023-10-19T04:41:04;10.40;99.90
23499;DHT22;11926;48.120;11.562;2023-10-19T04:43:55;10.40;99.90
23499;DHT22;11926;48.120;11.562;2023-10-19T04:46:45;10.40;99.90
23499;DHT22;11926;48.120;11.562;2023-10-19T04:49:36;10.40;99.90
23499;DHT22;11926;48.120;11.562;2023-10-19T04:52:25;10.40;99.90
23499;DHT22;11926;48.120;11.562;2023-10-19T04:55:14;10.40;99.90
23499;DHT22;11926;48.120;11.562;2023-10-19T04:58:02;10.50;99.90
23499;DHT22;11926;48.120;11.562;2023-10-19T05:00:52;10.50;99.90
23499;DHT22;11926;48.120;11.562;2023-10-19T05:03:41;10.50;99.90
23499;DHT22;11926;48.120;11.562;2023-10-19T05:06:31;10.60;99.90
23499;DHT22;11926;48.120;11.562;2023-10-19T05:09:21;10.50;99.90
23499;DHT22;11926;48.120;11.562;2023-10-19T05:12:10;10.60;99.90
23499;DHT22;11926;48.120;11.562;2023-10-19T05:15:01;10.60;99.90
23499;DHT22;11926;48.120;11.562;2023-10-19T05:17:52;10.60;99.90
23499;DHT22;11926;48.120;11.562;2023-10-19T05:20:41;10.60;99.90
23499;DHT22;11926;48.120;11.562;2023-10-19T05:23:31;10.70;99.90
23499;DHT22;11926;48.120;11.562;2023-10-19T05:26:19;10.60;99.90
23499;DHT22;11926;48.120;11.562;2023-10-19T05:29:09;10.60;99.90
23499;DHT22;11926;48.120;11.562;2023-10-19T05:31:59;10.60;99.90
23499;DHT22;11926;48.120;11.562;2023-10-19T05:34:48;10.70;99.90
23499;DHT22;11926;48.120;11.562;2023-10-19T05:37:38;10.60;99.90
23499;DHT22;11926;48.120;11.562;2023-10-19T05:40:28;10.60;99.90
23499;DHT22;11926;48.120;11.562;2023-10-19T05:43:17;10.60;99.90
23499;DHT22;11926;48.120;11.562;2023-10-19T05:46:05;10.60;99.90
23499;DHT22;11926;48.120;11.562;2023-10-19T05:48:54;10.60;99.90
23499;DHT22;11926;48.120;11.562;2023-10-19T05:51:43;10.50;99.90
23499;DHT22;11926;48.120;11.562;2023-10-19T05:54:34;10.50;99.90
23499;DHT22;11926;48.120;11.562;2023-10-19T05:57:25;10.50;99.90
23499;DHT22;11926;48.120;11.562;2023-10-19T06:00:14;10.50;99.90
23499;DHT22;11926;48.120;11.562;2023-10-19T06:03:04;10.50;99.90
23499;DHT22;11926;48.120;11.562;2023-10-19T06:05:53;10.50;99.90
23499;DHT22;11926;48.120;11.562;2023-10-19T06:08:43;10.50;99.90
23499;DHT22;11926;48.120;11.562;2023-10-19T06:11:31;10.50;99.90
23499;DHT22;11926;48.120;11.562;2023-10-19T06:14:22;10.50;99.90
23499;DHT22;11926;48.120;11.562;2023-10-19T06:17:11;10.50;99.90
23499;DHT22;11926;48.120;11.562;2023-10-19T06:20:07;10.40;99.90
23499;DHT22;11926;48.120;11.562;2023-10-19T06:23:06;10.40;99.90
23499;DHT22;11926;48.120;11.562;2023-10-19T06:25:54;10.40;99.90
23499;DHT22;11926;48.120;11.562;2023-10-19T06:28:42;10.40;99.90
23499;DHT22;11926;48.120;11.562;2023-10-19T06:31:33;10.50;99.90
23499;DHT22;11926;48.120;11.562;2023-10-19T06:34:24;10.50;99.90
23499;DHT22;11926;48.120;11.562;2023-10-19T06:37:14;10.60;99.90
23499;DHT22;11926;48.120;11.562;2023-10-19T06:40:06;10.70;99.90
23499;DHT22;11926;48.120;11.562;2023-10-19T06:42:56;10.80;99.90
23499;DHT22;11926;48.120;11.562;2023-10-19T06:45:53;10.80;99.90
23499;DHT22;11926;48.120;11.562;2023-10-19T06:48:46;10.80;99.90
23499;DHT22;11926;48.120;11.562;2023-10-19T06:51:38;10.90;99.90
23499;DHT22;11926;48.120;11.562;2023-10-19T06:54:27;11.00;99.90
23499;DHT22;11926;48.120;11.562;2023-10-19T06:57:16;11.00;99.90
23499;DHT22;11926;48.120;11.562;2023-10-19T07:00:05;11.10;99.90
23499;DHT22;11926;48.120;11.562;2023-10-19T07:03:00;11.20;99.90
23499;DHT22;11926;48.120;11.562;2023-10-19T07:05:54;11.30;99.90
23499;DHT22;11926;48.120;11.562;2023-10-19T07:08:45;11.50;99.90
23499;DHT22;11926;48.120;11.562;2023-10-19T07:11:34;11.50;99.90
23499;DHT22;11926;48.120;11.562;2023-10-19T07:14:22;11.60;99.90
23499;DHT22;11926;48.120;11.562;2023-10-19T07:17:12;11.70;99.90
23499;DHT22;11926;48.120;11.562;2023-10-19T07:20:01;11.80;99.90
23499;DHT22;11926;48.120;11.562;2023-10-19T07:22:55;11.90;99.90
23499;DHT22;11926;48.120;11.562;2023-10-19T07:25:44;12.10;99.90
23499;DHT22;11926;48.120;11.562;2023-10-19T07:28:35;12.20;99.90
23499;DHT22;11926;48.120;11.562;2023-10-19T07:31:27;12.30;99.90
23499;DHT22;11926;48.120;11.562;2023-10-19T07:34:16;12.50;99.90
23499;DHT22;11926;48.120;11.562;2023-10-19T07:37:06;12.60;99.90
23499;DHT22;11926;48.120;11.562;2023-10-19T07:40:00;12.70;99.90
23499;DHT22;11926;48.120;11.562;2023-10-19T07:42:54;12.90;99.90
23499;DHT22;11926;48.120;11.562;2023-10-19T07:45:44;13.00;99.90
23499;DHT22;11926;48.120;11.562;2023-10-19T07:48:34;13.20;99.90
23499;DHT22;11926;48.120;11.562;2023-10-19T07:51:23;13.30;99.90
23499;DHT22;11926;48.120;11.562;2023-10-19T07:54:12;13.40;99.90
23499;DHT22;11926;48.120;11.562;2023-10-19T07:57:03;13.50;99.90
23499;DHT22;11926;48.120;11.562;2023-10-19T07:59:53;13.60;99.90
23499;DHT22;11926;48.120;11.562;2023-10-19T08:02:44;13.60;99.90
23499;DHT22;11926;48.120;11.562;2023-10-19T08:05:34;13.60;99.90
23499;DHT22;11926;48.120;11.562;2023-10-19T08:08:23;13.70;99.90
23499;DHT22;11926;48.120;11.562;2023-10-19T08:11:11;13.80;99.90
23499;DHT22;11926;48.120;11.562;2023-10-19T08:14:02;13.90;99.90
23499;DHT22;11926;48.120;11.562;2023-10-19T08:16:52;13.90;99.90
23499;DHT22;11926;48.120;11.562;2023-10-19T08:19:44;14.00;99.90
23499;DHT22;11926;48.120;11.562;2023-10-19T08:22:32;14.10;99.90
23499;DHT22;11926;48.120;11.562;2023-10-19T08:25:21;14.30;99.90
23499;DHT22;11926;48.120;11.562;2023-10-19T08:28:10;14.50;99.90
23499;DHT22;11926;48.120;11.562;2023-10-19T08:31:00;14.80;99.90
23499;DHT22;11926;48.120;11.562;2023-10-19T08:33:50;14.90;99.90
23499;DHT22;11926;48.120;11.562;2023-10-19T08:36:39;15.10;99.90
23499;DHT22;11926;48.120;11.562;2023-10-19T08:39:29;15.30;99.90
23499;DHT22;11926;48.120;11.562;2023-10-19T08:42:23;15.30;99.90
23499;DHT22;11926;48.120;11.562;2023-10-19T08:45:12;15.40;99.90
23499;DHT22;11926;48.120;11.562;2023-10-19T08:48:03;15.50;99.90
23499;DHT22;11926;48.120;11.562;2023-10-19T08:50:54;15.50;99.30
23499;DHT22;11926;48.120;11.562;2023-10-19T08:53:44;15.60;99.00
23499;DHT22;11926;48.120;11.562;2023-10-19T08:56:34;15.60;98.70
23499;DHT22;11926;48.120;11.562;2023-10-19T08:59:23;15.70;99.30
23499;DHT22;11926;48.120;11.562;2023-10-19T09:02:12;15.80;99.40
23499;DHT22;11926;48.120;11.562;2023-10-19T09:05:07;15.90;99.00
23499;DHT22;11926;48.120;11.562;2023-10-19T09:08:06;16.00;98.50
23499;DHT22;11926;48.120;11.562;2023-10-19T09:10:58;16.10;98.40
23499;DHT22;11926;48.120;11.562;2023-10-19T09:13:47;16.10;98.20
23499;DHT22;11926;48.120;11.562;2023-10-19T09:16:36;16.20;97.80
23499;DHT22;11926;48.120;11.562;2023-10-19T09:19:37;16.30;97.70
23499;DHT22;11926;48.120;11.562;2023-10-19T09:22:35;16.40;97.50
23499;DHT22;11926;48.120;11.562;2023-10-19T09:25:32;16.40;97.60
23499;DHT22;11926;48.120;11.562;2023-10-19T09:28:22;16.40;97.40
23499;DHT22;11926;48.120;11.562;2023-10-19T09:31:11;16.50;97.30
23499;DHT22;11926;48.120;11.562;2023-10-19T09:34:01;16.50;96.90
23499;DHT22;11926;48.120;11.562;2023-10-19T09:36:54;16.50;96.70
23499;DHT22;11926;48.120;11.562;2023-10-19T09:39:43;16.50;96.70
23499;DHT22;11926;48.120;11.562;2023-10-19T09:42:32;16.50;96.90
23499;DHT22;11926;48.120;11.562;2023-10-19T09:45:21;16.50;96.90
23499;DHT22;11926;48.120;11.562;2023-10-19T09:48:12;16.50;97.20
23499;DHT22;11926;48.120;11.562;2023-10-19T09:51:04;16.60;97.20
23499;DHT22;11926;48.120;11.562;2023-10-19T09:54:10;16.70;96.80
23499;DHT22;11926;48.120;11.562;2023-10-19T09:57:08;17.00;96.60
23499;DHT22;11926;48.120;11.562;2023-10-19T10:00:05;17.20;96.10
23499;DHT22;11926;48.120;11.562;2023-10-19T10:02:59;17.70;95.80
23499;DHT22;11926;48.120;11.562;2023-10-19T10:05:49;18.10;94.50
23499;DHT22;11926;48.120;11.562;2023-10-19T10:08:40;18.50;93.10
23499;DHT22;11926;48.120;11.562;2023-10-19T10:11:29;18.60;92.30
23499;DHT22;11926;48.120;11.562;2023-10-19T10:14:24;18.70;92.00
23499;DHT22;11926;48.120;11.562;2023-10-19T10:17:20;18.70;92.20
23499;DHT22;11926;48.120;11.562;2023-10-19T10:20:29;18.70;92.00
23499;DHT22;11926;48.120;11.562;2023-10-19T10:23:19;18.70;92.30
23499;DHT22;11926;48.120;11.562;2023-10-19T10:26:13;18.70;92.20
23499;DHT22;11926;48.120;11.562;2023-10-19T10:29:10;18.80;92.10
23499;DHT22;11926;48.120;11.562;2023-10-19T10:32:02;18.80;91.50
23499;DHT22;11926;48.120;11.562;2023-10-19T10:34:53;18.80;91.00
23499;DHT22;11926;48.120;11.562;2023-10-19T10:37:54;18.70;90.40
23499;DHT22;11926;48.120;11.562;2023-10-19T10:40:43;18.70;90.60
23499;DHT22;11926;48.120;11.562;2023-10-19T10:43:31;18.60;90.60
23499;DHT22;11926;48.120;11.562;2023-10-19T10:46:21;18.70;90.80
23499;DHT22;11926;48.120;11.562;2023-10-19T10:49:16;18.80;90.70
23499;DHT22;11926;48.120;11.562;2023-10-19T10:52:03;18.80;90.40
23499;DHT22;11926;48.120;11.562;2023-10-19T10:54:52;18.70;90.70
23499;DHT22;11926;48.120;11.562;2023-10-19T10:57:43;18.80;90.20
23499;DHT22;11926;48.120;11.562;2023-10-19T11:00:32;19.00;90.20
23499;DHT22;11926;48.120;11.562;2023-10-19T11:03:21;19.10;89.50
23499;DHT22;11926;48.120;11.562;2023-10-19T11:06:12;19.20;88.90
23499;DHT22;11926;48.120;11.562;2023-10-19T11:09:09;19.40;89.90
23499;DHT22;11926;48.120;11.562;2023-10-19T11:11:58;19.60;89.40
23499;DHT22;11926;48.120;11.562;2023-10-19T11:14:54;19.70;88.30
23499;DHT22;11926;48.120;11.562;2023-10-19T11:17:44;19.90;87.90
23499;DHT22;11926;48.120;11.562;2023-10-19T11:20:34;20.00;87.70
23499;DHT22;11926;48.120;11.562;2023-10-19T11:23:40;20.10;86.90
23499;DHT22;11926;48.120;11.562;2023-10-19T11:26:30;20.10;87.60
23499;DHT22;11926;48.120;11.562;2023-10-19T11:29:19;20.10;85.00
23499;DHT22;11926;48.120;11.562;2023-10-19T11:32:11;20.10;85.20
23499;DHT22;11926;48.120;11.562;2023-10-19T11:35:02;20.00;84.40
23499;DHT22;11926;48.120;11.562;2023-10-19T11:37:52;19.90;84.20
23499;DHT22;11926;48.120;11.562;2023-10-19T11:40:45;19.80;84.00
23499;DHT22;11926;48.120;11.562;2023-10-19T11:43:37;19.70;84.30
23499;DHT22;11926;48.120;11.562;2023-10-19T11:46:28;19.60;84.90
23499;DHT22;11926;48.120;11.562;2023-10-19T11:49:20;19.60;86.10
23499;DHT22;11926;48.120;11.562;2023-10-19T11:52:15;19.60;86.80
23499;DHT22;11926;48.120;11.562;2023-10-19T11:55:06;19.70;87.20
23499;DHT22;11926;48.120;11.562;2023-10-19T11:58:01;19.80;87.10
23499;DHT22;11926;48.120;11.562;2023-10-19T12:00:53;19.80;87.30
23499;DHT22;11926;48.120;11.562;2023-10-19T12:03:43;19.80;87.60
23499;DHT22;11926;48.120;11.562;2023-10-19T12:06:33;19.80;87.00
23499;DHT22;11926;48.120;11.562;2023-10-19T12:09:21;19.80;86.90
23499;DHT22;11926;48.120;11.562;2023-10-19T12:12:13;19.80;86.50
23499;DHT22;11926;48.120;11.562;2023-10-19T12:15:04;19.90;86.10
23499;DHT22;11926;48.120;11.562;2023-10-19T12:17:53;20.10;86.70
23499;DHT22;11926;48.120;11.562;2023-10-19T12:20:42;20.20;85.40
23499;DHT22;11926;48.120;11.562;2023-10-19T12:23:33;20.30;84.20
23499;DHT22;11926;48.120;11.562;2023-10-19T12:26:23;20.30;82.70
23499;DHT22;11926;48.120;11.562;2023-10-19T12:29:13;20.10;82.20
23499;DHT22;11926;48.120;11.562;2023-10-19T12:32:12;20.00;82.50
23499;DHT22;11926;48.120;11.562;2023-10-19T12:35:02;20.00;82.90
23499;DHT22;11926;48.120;11.562;2023-10-19T12:37:58;20.00;82.50
23499;DHT22;11926;48.120;11.562;2023-10-19T12:40:47;20.10;82.50
23499;DHT22;11926;48.120;11.562;2023-10-19T12:43:37;20.30;82.70
23499;DHT22;11926;48.120;11.562;2023-10-19T12:46:26;20.40;82.00
23499;DHT22;11926;48.120;11.562;2023-10-19T12:49:19;20.50;81.20
23499;DHT22;11926;48.120;11.562;2023-10-19T12:55:01;20.60;80.10
23499;DHT22;11926;48.120;11.562;2023-10-19T12:57:52;20.60;81.20
23499;DHT22;11926;48.120;11.562;2023-10-19T13:00:40;20.70;80.50
23499;DHT22;11926;48.120;11.562;2023-10-19T13:03:32;20.70;79.70
23499;DHT22;11926;48.120;11.562;2023-10-19T13:06:24;20.60;79.60
23499;DHT22;11926;48.120;11.562;2023-10-19T13:09:16;20.50;79.50
23499;DHT22;11926;48.120;11.562;2023-10-19T13:12:09;20.50;79.90
23499;DHT22;11926;48.120;11.562;2023-10-19T13:15:02;20.40;80.40
23499;DHT22;11926;48.120;11.562;2023-10-19T13:17:54;20.40;80.00
23499;DHT22;11926;48.120;11.562;2023-10-19T13:20:42;20.40;79.70
23499;DHT22;11926;48.120;11.562;2023-10-19T13:23:33;20.40;79.20
23499;DHT22;11926;48.120;11.562;2023-10-19T13:26:24;20.40;79.10
23499;DHT22;11926;48.120;11.562;2023-10-19T13:29:14;20.30;79.00
23499;DHT22;11926;48.120;11.562;2023-10-19T13:32:05;20.30;79.80
23499;DHT22;11926;48.120;11.562;2023-10-19T13:34:54;20.30;80.20
23499;DHT22;11926;48.120;11.562;2023-10-19T13:37:45;20.30;80.40
23499;DHT22;11926;48.120;11.562;2023-10-19T13:40:36;20.30;79.50
23499;DHT22;11926;48.120;11.562;2023-10-19T13:43:25;20.20;80.40
23499;DHT22;11926;48.120;11.562;2023-10-19T13:46:14;20.20;80.80
23499;DHT22;11926;48.120;11.562;2023-10-19T13:49:03;20.20;81.10
23499;DHT22;11926;48.120;11.562;2023-10-19T13:51:53;20.30;81.60
23499;DHT22;11926;48.120;11.562;2023-10-19T13:54:42;20.30;80.70
23499;DHT22;11926;48.120;11.562;2023-10-19T13:57:32;20.20;79.70
23499;DHT22;11926;48.120;11.562;2023-10-19T14:00:21;20.10;81.90
23499;DHT22;11926;48.120;11.562;2023-10-19T14:03:17;20.00;82.80
23499;DHT22;11926;48.120;11.562;2023-10-19T14:06:12;20.00;83.20
23499;DHT22;11926;48.120;11.562;2023-10-19T14:09:01;19.90;81.60
23499;DHT22;11926;48.120;11.562;2023-10-19T14:11:52;19.80;82.90
23499;DHT22;11926;48.120;11.562;2023-10-19T14:14:42;19.80;84.10
23499;DHT22;11926;48.120;11.562;2023-10-19T14:17:32;19.70;85.10
23499;DHT22;11926;48.120;11.562;2023-10-19T14:20:20;19.70;86.40
23499;DHT22;11926;48.120;11.562;2023-10-19T14:23:09;19.70;87.10
23499;DHT22;11926;48.120;11.562;2023-10-19T14:25:58;19.60;86.90
23499;DHT22;11926;48.120;11.562;2023-10-19T14:28:46;19.50;87.80
23499;DHT22;11926;48.120;11.562;2023-10-19T14:31:38;19.40;87.50
23499;DHT22;11926;48.120;11.562;2023-10-19T14:34:28;19.30;87.70
23499;DHT22;11926;48.120;11.562;2023-10-19T14:37:17;19.40;88.70
23499;DHT22;11926;48.120;11.562;2023-10-19T14:40:08;19.30;89.30
23499;DHT22;11926;48.120;11.562;2023-10-19T14:43:01;19.40;89.00
23499;DHT22;11926;48.120;11.562;2023-10-19T14:45:51;19.30;89.30
23499;DHT22;11926;48.120;11.562;2023-10-19T14:48:43;19.30;89.50
23499;DHT22;11926;48.120;11.562;2023-10-19T14:51:32;19.30;90.10
23499;DHT22;11926;48.120;11.562;2023-10-19T14:54:21;19.20;90.30
23499;DHT22;11926;48.120;11.562;2023-10-19T14:57:09;19.20;90.10
23499;DHT22;11926;48.120;11.562;2023-10-19T14:59:58;19.10;90.20
23499;DHT22;11926;48.120;11.562;2023-10-19T15:02:55;19.10;90.10
23499;DHT22;11926;48.120;11.562;2023-10-19T15:05:50;19.00;90.40
23499;DHT22;11926;48.120;11.562;2023-10-19T15:08:40;18.90;90.60
23499;DHT22;11926;48.120;11.562;2023-10-19T15:11:28;18.80;90.80
23499;DHT22;11926;48.120;11.562;2023-10-19T15:14:17;18.70;91.00
23499;DHT22;11926;48.120;11.562;2023-10-19T15:17:06;18.70;91.30
23499;DHT22;11926;48.120;11.562;2023-10-19T15:19:54;18.60;91.60
23499;DHT22;11926;48.120;11.562;2023-10-19T15:22:47;18.60;91.80
23499;DHT22;11926;48.120;11.562;2023-10-19T15:25:37;18.50;92.40
23499;DHT22;11926;48.120;11.562;2023-10-19T15:28:27;18.50;92.30
23499;DHT22;11926;48.120;11.562;2023-10-19T15:31:22;18.40;92.30
23499;DHT22;11926;48.120;11.562;2023-10-19T15:34:14;18.40;92.40
23499;DHT22;11926;48.120;11.562;2023-10-19T15:37:03;18.20;92.20
23499;DHT22;11926;48.120;11.562;2023-10-19T15:39:53;18.20;92.60
23499;DHT22;11926;48.120;11.562;2023-10-19T15:42:42;18.20;92.70
23499;DHT22;11926;48.120;11.562;2023-10-19T15:45:31;18.20;92.70
23499;DHT22;11926;48.120;11.562;2023-10-19T15:48:24;18.10;92.80
23499;DHT22;11926;48.120;11.562;2023-10-19T15:51:13;17.90;93.00
23499;DHT22;11926;48.120;11.562;2023-10-19T15:54:02;17.80;93.10
23499;DHT22;11926;48.120;11.562;2023-10-19T15:56:52;17.80;93.00
23499;DHT22;11926;48.120;11.562;2023-10-19T15:59:41;17.60;93.50
23499;DHT22;11926;48.120;11.562;2023-10-19T16:02:33;17.40;93.30
23499;DHT22;11926;48.120;11.562;2023-10-19T16:05:23;17.30;93.50
23499;DHT22;11926;48.120;11.562;2023-10-19T16:08:19;17.30;93.80
23499;DHT22;11926;48.120;11.562;2023-10-19T16:11:07;17.30;94.30
23499;DHT22;11926;48.120;11.562;2023-10-19T16:13:58;17.30;93.80
23499;DHT22;11926;48.120;11.562;2023-10-19T16:16:47;17.20;94.00
23499;DHT22;11926;48.120;11.562;2023-10-19T16:19:36;17.20;94.00
23499;DHT22;11926;48.120;11.562;2023-10-19T16:22:24;17.10;94.00
23499;DHT22;11926;48.120;11.562;2023-10-19T16:25:13;17.00;94.00
23499;DHT22;11926;48.120;11.562;2023-10-19T16:28:01;16.90;94.00
23499;DHT22;11926;48.120;11.562;2023-10-19T16:30:51;16.80;94.30
23499;DHT22;11926;48.120;11.562;2023-10-19T16:33:40;16.80;94.40
23499;DHT22;11926;48.120;11.562;2023-10-19T16:36:32;16.80;94.40
23499;DHT22;11926;48.120;11.562;2023-10-19T16:39:20;16.70;94.40
23499;DHT22;11926;48.120;11.562;2023-10-19T16:45:58;16.60;94.30
23499;DHT22;11926;48.120;11.562;2023-10-19T16:48:47;16.50;94.70
23499;DHT22;11926;48.120;11.562;2023-10-19T16:51:36;16.50;94.60
23499;DHT22;11926;48.120;11.562;2023-10-19T16:54:27;16.50;94.80
23499;DHT22;11926;48.120;11.562;2023-10-19T16:57:17;16.50;94.50
23499;DHT22;11926;48.120;11.562;2023-10-19T17:00:07;16.40;94.60
23499;DHT22;11926;48.120;11.562;2023-10-19T17:03:02;16.30;94.70
23499;DHT22;11926;48.120;11.562;2023-10-19T17:05:51;16.30;94.70
23499;DHT22;11926;48.120;11.562;2023-10-19T17:08:40;16.20;94.80
23499;DHT22;11926;48.120;11.562;2023-10-19T17:11:28;16.10;95.00
23499;DHT22;11926;48.120;11.562;2023-10-19T17:14:17;16.00;95.00
23499;DHT22;11926;48.120;11.562;2023-10-19T17:17:06;15.90;95.20
23499;DHT22;11926;48.120;11.562;2023-10-19T17:19:57;15.80;95.40
23499;DHT22;11926;48.120;11.562;2023-10-19T17:22:45;15.70;95.50
23499;DHT22;11926;48.120;11.562;2023-10-19T17:25:35;15.70;95.60
23499;DHT22;11926;48.120;11.562;2023-10-19T17:28:24;15.60;95.70
23499;DHT22;11926;48.120;11.562;2023-10-19T17:31:13;15.50;95.80
23499;DHT22;11926;48.120;11.562;2023-10-19T17:34:03;15.50;95.80
23499;DHT22;11926;48.120;11.562;2023-10-19T17:36:55;15.40;95.90
23499;DHT22;11926;48.120;11.562;2023-10-19T17:39:43;15.30;96.10
23499;DHT22;11926;48.120;11.562;2023-10-19T17:42:31;15.20;96.30
23499;DHT22;11926;48.120;11.562;2023-10-19T17:45:21;15.20;96.40
23499;DHT22;11926;48.120;11.562;2023-10-19T17:48:10;15.10;96.50
23499;DHT22;11926;48.120;11.562;2023-10-19T17:51:07;15.10;96.60
23499;DHT22;11926;48.120;11.562;2023-10-19T17:53:57;15.10;96.60